Virtuous Striker — C6XX6 — position and weather

sailwx.info

Track history (hours):
 
Tides and Currents Weather Stations Pressure Air Temp Water Temp Dewpoint Dewpoint Depression Visibility Wind Speed Wind Dir Waves Ship Positions

Virtuous Striker

Last reported at 2017-Apr-08 03:42 UTC. Time now 2017-Apr-28 02:33 UTC.
Position N 07°57' W 015°15'.
Warning: this ship's position is 19 days out of date.

Length 190 m; draft 11.3 m.

Type: Cargo ship. MMSI: 311025100.

Date/timePositionNaut miles runAvg speedWind from/ knotsBaromVisibWave heightAir tempDewpointWater temp
2017-Apr-08 03:42N 07°57' W 015°15'3712.1
2017-Apr-08 00:36N 08°25' W 015°41'112.5
2017-Apr-08 00:30N 08°25' W 015°42'612.5
2017-Apr-08 00:00N 08°30' W 015°46'1712.4
2017-Apr-07 22:39N 08°42' W 015°58'212.1
2017-Apr-07 22:30N 08°44' W 015°59'5912.4
2017-Apr-07 17:46N 09°29' W 016°37'712.0
2017-Apr-07 17:13N 09°34' W 016°41'311.7
2017-Apr-07 17:00N 09°36' W 016°43'611.9
2017-Apr-07 16:29N 09°40' W 016°47'612.2
2017-Apr-07 16:00N 09°45' W 016°51'612.1
2017-Apr-07 15:31N 09°50' W 016°55'611.9
2017-Apr-07 15:00N 09°54' W 016°59'1312.2
2017-Apr-07 13:56N 10°04' W 017°07'512.5
2017-Apr-07 13:31N 10°08' W 017°11'15311.5
2017-Apr-07 00:15N 12°26' W 018°19'311.9
2017-Apr-07 00:00N 12°29' W 018°19'612.0
2017-Apr-06 23:29N 12°35' W 018°20'1012.2
2017-Apr-06 22:37N 12°45' W 018°22'212.2
2017-Apr-06 22:30N 12°47' W 018°22'612.3
2017-Apr-06 22:00N 12°53' W 018°22'612.3
2017-Apr-06 21:30N 12°59' W 018°23'712.5
2017-Apr-06 20:55N 13°06' W 018°23'31811.7
2017-Apr-05 17:52N 18°24' W 018°17'511.8
2017-Apr-05 17:26N 18°29' W 018°16'17312.1
2017-Apr-05 03:09N 21°19' W 017°49'14312.1
2017-Apr-04 15:21N 23°40' W 017°22'511.7
2017-Apr-04 14:55N 23°44' W 017°19'16211.8
2017-Apr-04 01:16N 25°50' W 015°27'412.4
2017-Apr-04 00:57N 25°53' W 015°24'712.5
2017-Apr-04 00:21N 25°58' W 015°19'412.5
2017-Apr-04 00:00N 26°02' W 015°16'712.4
2017-Apr-03 23:28N 26°07' W 015°11'612.2
2017-Apr-03 23:00N 26°11' W 015°07'712.1
2017-Apr-03 22:24N 26°17' W 015°03'512.0
2017-Apr-03 22:00N 26°21' W 014°60'611.9
2017-Apr-03 21:29N 26°26' W 014°56'611.9
2017-Apr-03 21:00N 26°31' W 014°52'611.8
2017-Apr-03 20:30N 26°36' W 014°48'1411.9
2017-Apr-03 19:17N 26°47' W 014°38'412.1
2017-Apr-03 18:58N 26°50' W 014°36'612.0
2017-Apr-03 18:30N 26°55' W 014°32'612.3
2017-Apr-03 18:00N 26°59' W 014°27'612.3
2017-Apr-03 17:30N 27°04' W 014°22'612.3
2017-Apr-03 16:59N 27°08' W 014°17'712.3
2017-Apr-03 16:28N 27°13' W 014°12'612.4
2017-Apr-03 16:00N 27°17' W 014°07'712.4
2017-Apr-03 15:27N 27°21' W 014°02'612.3
2017-Apr-03 15:00N 27°25' W 013°58'612.2
2017-Apr-03 14:30N 27°30' W 013°53'1312.4
2017-Apr-03 13:29N 27°40' W 013°45'612.5
2017-Apr-03 13:00N 27°45' W 013°41'612.5
2017-Apr-03 12:30N 27°50' W 013°37'612.6
2017-Apr-03 12:00N 27°56' W 013°34'612.8
2017-Apr-03 11:30N 28°01' W 013°30'712.8
2017-Apr-03 10:59N 28°07' W 013°26'612.7
2017-Apr-03 10:29N 28°12' W 013°22'612.6
2017-Apr-03 10:00N 28°18' W 013°19'612.6
2017-Apr-03 09:30N 28°23' W 013°15'612.6
2017-Apr-03 09:00N 28°29' W 013°12'612.4
2017-Apr-03 08:30N 28°34' W 013°08'612.3
2017-Apr-03 08:00N 28°39' W 013°04'1012.4
2017-Apr-03 07:12N 28°47' W 012°58'312.5
2017-Apr-03 06:59N 28°50' W 012°56'612.3
2017-Apr-03 06:29N 28°55' W 012°53'712.4
2017-Apr-03 05:57N 29°01' W 012°49'712.3
2017-Apr-03 05:22N 29°07' W 012°45'512.4
2017-Apr-03 04:59N 29°11' W 012°42'612.1
2017-Apr-03 04:30N 29°16' W 012°39'612.2
2017-Apr-03 04:00N 29°21' W 012°35'612.0
2017-Apr-03 03:29N 29°26' W 012°31'612.1
2017-Apr-03 02:59N 29°32' W 012°27'612.2
2017-Apr-03 02:29N 29°37' W 012°24'612.1
2017-Apr-03 02:00N 29°42' W 012°20'612.1
2017-Apr-03 01:30N 29°47' W 012°16'612.1
2017-Apr-03 01:00N 29°52' W 012°13'2112.3
2017-Apr-02 23:16N 30°10' W 011°60'312.4
2017-Apr-02 23:00N 30°13' W 011°58'612.2
2017-Apr-02 22:30N 30°18' W 011°54'1812.1
2017-Apr-02 21:03N 30°33' W 011°43'112.2
2017-Apr-02 20:58N 30°34' W 011°43'42911.9
2017-Apr-01 08:55N 35°57' W 006°06'4 9.5
2017-Apr-01 08:28N 35°57' W 006°01'7 9.3
2017-Apr-01 07:45N 35°57' W 005°52'3 9.0
2017-Apr-01 07:23N 35°57' W 005°48'3 8.5
2017-Apr-01 06:59N 35°57' W 005°44'4 8.5
2017-Apr-01 06:30N 35°57' W 005°39'5 9.6
2017-Apr-01 06:00N 35°58' W 005°33'5 9.7
2017-Apr-01 05:30N 35°60' W 005°28'4 8.7
2017-Apr-01 05:00N 36°03' W 005°24'5 9.0
2017-Apr-01 04:31N 36°07' W 005°23'1 1.0
2017-Apr-01 03:20N 36°08' W 005°23'0 0.5
2017-Apr-01 02:56N 36°08' W 005°22'0 0.5
2017-Apr-01 02:29N 36°08' W 005°23'0 0.1
2017-Apr-01 01:59N 36°08' W 005°23'0 0.1
2017-Apr-01 01:20N 36°08' W 005°23'0 0.0
2017-Apr-01 00:53N 36°08' W 005°23'0 0.0
2017-Apr-01 00:20N 36°08' W 005°23'0 0.0
2017-Mar-31 23:44N 36°08' W 005°23'0 0.0
2017-Mar-31 23:26N 36°08' W 005°23'0 0.0
2017-Mar-31 22:56N 36°08' W 005°23'0 0.0
2017-Mar-31 22:29N 36°08' W 005°23'0 0.0
2017-Mar-31 21:56N 36°08' W 005°23'0 0.0
2017-Mar-31 21:29N 36°08' W 005°23'0 0.0
2017-Mar-31 20:59N 36°08' W 005°23'0 0.0
2017-Mar-31 20:29N 36°08' W 005°23'0 0.1
2017-Mar-31 20:00N 36°08' W 005°23'2 4.7
2017-Mar-31 19:30N 36°06' W 005°22'3 6.4
2017-Mar-31 19:00N 36°05' W 005°18'5 9.5
2017-Mar-31 18:30N 36°08' W 005°13'7 0.4
2017-Mar-31 02:04N 36°10' W 005°05'24711.5
2017-Mar-30 04:33N 36°57' W 000°03'3012.4
2017-Mar-30 02:09N 37°04' E 000°34'1112.8
2017-Mar-30 01:17N 37°05' E 000°47'912.8
2017-Mar-30 00:33N 37°06' E 000°59'5012.4
2017-Mar-29 20:33N 37°13' E 002°01'1212.4
2017-Mar-29 19:33N 37°15' E 002°16'1512.8
2017-Mar-29 18:23N 37°17' E 002°35'  
Track history (hours):
 
Tides and Currents Weather Stations Pressure Air Temp Water Temp Dewpoint Dewpoint Depression Visibility Wind Speed Wind Dir Waves Ship Positions

Virtuous Striker

Last reported at 2017-Apr-08 03:42 UTC. Time now 2017-Apr-28 02:33 UTC.
Position N 07°57' W 015°15'.
Warning: this ship's position is 19 days out of date.

Length 190 m; draft 11.3 m.

Type: Cargo ship. MMSI: 311025100.

Date/timePositionNaut miles runAvg speedWind from/ knotsBaromVisibWave heightAir tempDewpointWater temp
2017-Apr-08 03:42N 07°57' W 015°15'3712.1
2017-Apr-08 00:36N 08°25' W 015°41'112.5
2017-Apr-08 00:30N 08°25' W 015°42'612.5
2017-Apr-08 00:00N 08°30' W 015°46'1712.4
2017-Apr-07 22:39N 08°42' W 015°58'212.1
2017-Apr-07 22:30N 08°44' W 015°59'5912.4
2017-Apr-07 17:46N 09°29' W 016°37'712.0
2017-Apr-07 17:13N 09°34' W 016°41'311.7
2017-Apr-07 17:00N 09°36' W 016°43'611.9
2017-Apr-07 16:29N 09°40' W 016°47'612.2
2017-Apr-07 16:00N 09°45' W 016°51'612.1
2017-Apr-07 15:31N 09°50' W 016°55'611.9
2017-Apr-07 15:00N 09°54' W 016°59'1312.2
2017-Apr-07 13:56N 10°04' W 017°07'512.5
2017-Apr-07 13:31N 10°08' W 017°11'15311.5
2017-Apr-07 00:15N 12°26' W 018°19'311.9
2017-Apr-07 00:00N 12°29' W 018°19'612.0
2017-Apr-06 23:29N 12°35' W 018°20'1012.2
2017-Apr-06 22:37N 12°45' W 018°22'212.2
2017-Apr-06 22:30N 12°47' W 018°22'612.3
2017-Apr-06 22:00N 12°53' W 018°22'612.3
2017-Apr-06 21:30N 12°59' W 018°23'712.5
2017-Apr-06 20:55N 13°06' W 018°23'31811.7
2017-Apr-05 17:52N 18°24' W 018°17'511.8
2017-Apr-05 17:26N 18°29' W 018°16'17312.1
2017-Apr-05 03:09N 21°19' W 017°49'14312.1
2017-Apr-04 15:21N 23°40' W 017°22'511.7
2017-Apr-04 14:55N 23°44' W 017°19'16211.8
2017-Apr-04 01:16N 25°50' W 015°27'412.4
2017-Apr-04 00:57N 25°53' W 015°24'712.5
2017-Apr-04 00:21N 25°58' W 015°19'412.5
2017-Apr-04 00:00N 26°02' W 015°16'712.4
2017-Apr-03 23:28N 26°07' W 015°11'612.2
2017-Apr-03 23:00N 26°11' W 015°07'712.1
2017-Apr-03 22:24N 26°17' W 015°03'512.0
2017-Apr-03 22:00N 26°21' W 014°60'611.9
2017-Apr-03 21:29N 26°26' W 014°56'611.9
2017-Apr-03 21:00N 26°31' W 014°52'611.8
2017-Apr-03 20:30N 26°36' W 014°48'1411.9
2017-Apr-03 19:17N 26°47' W 014°38'412.1
2017-Apr-03 18:58N 26°50' W 014°36'612.0
2017-Apr-03 18:30N 26°55' W 014°32'612.3
2017-Apr-03 18:00N 26°59' W 014°27'612.3
2017-Apr-03 17:30N 27°04' W 014°22'612.3
2017-Apr-03 16:59N 27°08' W 014°17'712.3
2017-Apr-03 16:28N 27°13' W 014°12'612.4
2017-Apr-03 16:00N 27°17' W 014°07'712.4
2017-Apr-03 15:27N 27°21' W 014°02'612.3
2017-Apr-03 15:00N 27°25' W 013°58'612.2
2017-Apr-03 14:30N 27°30' W 013°53'1312.4
2017-Apr-03 13:29N 27°40' W 013°45'612.5
2017-Apr-03 13:00N 27°45' W 013°41'612.5
2017-Apr-03 12:30N 27°50' W 013°37'612.6
2017-Apr-03 12:00N 27°56' W 013°34'612.8
2017-Apr-03 11:30N 28°01' W 013°30'712.8
2017-Apr-03 10:59N 28°07' W 013°26'612.7
2017-Apr-03 10:29N 28°12' W 013°22'612.6
2017-Apr-03 10:00N 28°18' W 013°19'612.6
2017-Apr-03 09:30N 28°23' W 013°15'612.6
2017-Apr-03 09:00N 28°29' W 013°12'612.4
2017-Apr-03 08:30N 28°34' W 013°08'612.3
2017-Apr-03 08:00N 28°39' W 013°04'1012.4
2017-Apr-03 07:12N 28°47' W 012°58'312.5
2017-Apr-03 06:59N 28°50' W 012°56'612.3
2017-Apr-03 06:29N 28°55' W 012°53'712.4
2017-Apr-03 05:57N 29°01' W 012°49'712.3
2017-Apr-03 05:22N 29°07' W 012°45'512.4
2017-Apr-03 04:59N 29°11' W 012°42'612.1
2017-Apr-03 04:30N 29°16' W 012°39'612.2
2017-Apr-03 04:00N 29°21' W 012°35'612.0
2017-Apr-03 03:29N 29°26' W 012°31'612.1
2017-Apr-03 02:59N 29°32' W 012°27'612.2
2017-Apr-03 02:29N 29°37' W 012°24'612.1
2017-Apr-03 02:00N 29°42' W 012°20'612.1
2017-Apr-03 01:30N 29°47' W 012°16'612.1
2017-Apr-03 01:00N 29°52' W 012°13'2112.3
2017-Apr-02 23:16N 30°10' W 011°60'312.4
2017-Apr-02 23:00N 30°13' W 011°58'612.2
2017-Apr-02 22:30N 30°18' W 011°54'1812.1
2017-Apr-02 21:03N 30°33' W 011°43'112.2
2017-Apr-02 20:58N 30°34' W 011°43'42911.9
2017-Apr-01 08:55N 35°57' W 006°06'4 9.5
2017-Apr-01 08:28N 35°57' W 006°01'7 9.3
2017-Apr-01 07:45N 35°57' W 005°52'3 9.0
2017-Apr-01 07:23N 35°57' W 005°48'3 8.5
2017-Apr-01 06:59N 35°57' W 005°44'4 8.5
2017-Apr-01 06:30N 35°57' W 005°39'5 9.6
2017-Apr-01 06:00N 35°58' W 005°33'5 9.7
2017-Apr-01 05:30N 35°60' W 005°28'4 8.7
2017-Apr-01 05:00N 36°03' W 005°24'5 9.0
2017-Apr-01 04:31N 36°07' W 005°23'1 1.0
2017-Apr-01 03:20N 36°08' W 005°23'0 0.5
2017-Apr-01 02:56N 36°08' W 005°22'0 0.5
2017-Apr-01 02:29N 36°08' W 005°23'0 0.1
2017-Apr-01 01:59N 36°08' W 005°23'0 0.1
2017-Apr-01 01:20N 36°08' W 005°23'0 0.0
2017-Apr-01 00:53N 36°08' W 005°23'0 0.0
2017-Apr-01 00:20N 36°08' W 005°23'0 0.0
2017-Mar-31 23:44N 36°08' W 005°23'0 0.0
2017-Mar-31 23:26N 36°08' W 005°23'0 0.0
2017-Mar-31 22:56N 36°08' W 005°23'0 0.0
2017-Mar-31 22:29N 36°08' W 005°23'0 0.0
2017-Mar-31 21:56N 36°08' W 005°23'0 0.0
2017-Mar-31 21:29N 36°08' W 005°23'0 0.0
2017-Mar-31 20:59N 36°08' W 005°23'0 0.0
2017-Mar-31 20:29N 36°08' W 005°23'0 0.1
2017-Mar-31 20:00N 36°08' W 005°23'2 4.7
2017-Mar-31 19:30N 36°06' W 005°22'3 6.4
2017-Mar-31 19:00N 36°05' W 005°18'5 9.5
2017-Mar-31 18:30N 36°08' W 005°13'7 0.4
2017-Mar-31 02:04N 36°10' W 005°05'24711.5
2017-Mar-30 04:33N 36°57' W 000°03'3012.4
2017-Mar-30 02:09N 37°04' E 000°34'1112.8
2017-Mar-30 01:17N 37°05' E 000°47'912.8
2017-Mar-30 00:33N 37°06' E 000°59'5012.4
2017-Mar-29 20:33N 37°13' E 002°01'1212.4
2017-Mar-29 19:33N 37°15' E 002°16'1512.8
2017-Mar-29 18:23N 37°17' E 002°35'  

Dump ship's entire track history